Time,TemperatureF,DewpointF,PressureIn,WindDirection,WindDirectionDegrees,WindSpeedMPH,WindSpeedGustMPH,Humidity,HourlyPrecipIn,Conditions,Clouds,dailyrainin,SoftwareType,DateUTC
2013-04-11 00:04:00,64.0,53.2,29.77,SSW,208,0.0,0.0,68,0.00,,,0.00,Wunderground v.1.15,2013-04-11 04:04:00,
2013-04-11 00:09:00,63.7,53.3,29.77,SSW,208,0.0,0.0,69,0.00,,,0.00,Wunderground v.1.15,2013-04-11 04:09:00,
2013-04-11 00:15:00,63.4,53.0,29.77,SSW,208,0.0,0.0,69,0.00,,,0.00,Wunderground v.1.15,2013-04-11 04:15:00,
2013-04-11 00:24:00,63.1,52.8,29.77,SSW,208,0.0,0.0,69,0.00,,,0.00,Wunderground v.1.15,2013-04-11 04:24:00,
2013-04-11 00:30:00,62.9,53.0,29.77,SSW,208,0.0,0.0,70,0.00,,,0.00,Wunderground v.1.15,2013-04-11 04:30:00,
2013-04-11 00:39:00,62.9,53.0,29.77,SSW,208,0.0,0.0,70,0.00,,,0.00,Wunderground v.1.15,2013-04-11 04:39:00,
2013-04-11 00:49:00,62.6,53.1,29.76,SSW,208,0.0,0.0,71,0.00,,,0.00,Wunderground v.1.15,2013-04-11 04:49:00,
2013-04-11 00:55:00,62.4,53.3,29.76,SSW,208,0.0,0.0,72,0.00,,,0.00,Wunderground v.1.15,2013-04-11 04:55:00,
2013-04-11 01:04:00,62.1,53.0,29.77,SSW,208,0.0,0.0,72,0.00,,,0.00,Wunderground v.1.15,2013-04-11 05:04:00,
2013-04-11 01:10:00,62.0,52.9,29.77,SSW,208,0.0,0.0,72,0.00,,,0.00,Wunderground v.1.15,2013-04-11 05:10:00,
2013-04-11 01:19:00,61.5,52.8,29.78,SSW,208,0.0,0.0,73,0.00,,,0.00,Wunderground v.1.15,2013-04-11 05:19:00,
2013-04-11 01:29:00,61.3,52.9,29.78,SSW,208,0.0,0.0,74,0.00,,,0.00,Wunderground v.1.15,2013-04-11 05:29:00,
2013-04-11 01:35:00,61.2,52.8,29.78,SSW,208,0.0,0.0,74,0.00,,,0.00,Wunderground v.1.15,2013-04-11 05:35:00,
2013-04-11 01:45:00,60.7,52.7,29.78,SSW,208,0.0,0.0,75,0.00,,,0.00,Wunderground v.1.15,2013-04-11 05:45:00,
2013-04-11 01:50:00,60.4,52.4,29.78,SSW,208,0.0,0.0,75,0.00,,,0.00,Wunderground v.1.15,2013-04-11 05:50:00,
2013-04-11 01:59:00,60.4,52.8,29.78,SSW,208,0.0,0.0,76,0.00,,,0.00,Wunderground v.1.15,2013-04-11 05:59:00,
2013-04-11 02:09:00,60.1,52.5,29.78,SSW,208,0.0,0.0,76,0.00,,,0.00,Wunderground v.1.15,2013-04-11 06:09:00,
2013-04-11 02:15:00,59.9,52.3,29.78,SSW,208,0.0,0.0,76,0.00,,,0.00,Wunderground v.1.15,2013-04-11 06:15:00,
2013-04-11 02:25:00,59.8,52.2,29.78,SSW,208,0.0,0.0,76,0.00,,,0.00,Wunderground v.1.15,2013-04-11 06:25:00,
2013-04-11 02:34:00,59.8,52.2,29.78,SSW,208,0.0,0.0,76,0.00,,,0.00,Wunderground v.1.15,2013-04-11 06:34:00,
2013-04-11 02:40:00,59.8,52.6,29.78,SSW,208,0.0,0.0,77,0.00,,,0.00,Wunderground v.1.15,2013-04-11 06:40:00,
2013-04-11 02:49:00,59.8,52.6,29.77,SSW,208,0.0,0.0,77,0.00,,,0.00,Wunderground v.1.15,2013-04-11 06:49:00,
2013-04-11 02:59:00,59.6,52.4,29.77,SSW,208,0.0,0.0,77,0.00,,,0.00,Wunderground v.1.15,2013-04-11 06:59:00,
2013-04-11 03:05:00,59.5,52.3,29.77,SSW,208,0.0,0.0,77,0.00,,,0.00,Wunderground v.1.15,2013-04-11 07:05:00,
2013-04-11 03:10:00,59.5,52.6,29.77,SSW,208,0.0,0.0,78,0.00,,,0.00,Wunderground v.1.15,2013-04-11 07:10:00,
2013-04-11 03:20:00,59.2,52.3,29.76,SSW,208,0.0,0.0,78,0.00,,,0.00,Wunderground v.1.15,2013-04-11 07:20:00,
2013-04-11 03:25:00,59.0,52.5,29.76,SSW,208,0.0,0.0,79,0.00,,,0.00,Wunderground v.1.15,2013-04-11 07:25:00,
2013-04-11 03:30:00,58.9,52.4,29.76,SSW,208,0.0,0.0,79,0.00,,,0.00,Wunderground v.1.15,2013-04-11 07:30:00,
2013-04-11 03:40:00,58.6,52.1,29.76,SSW,208,0.0,0.0,79,0.00,,,0.00,Wunderground v.1.15,2013-04-11 07:40:00,
2013-04-11 03:45:00,58.4,52.3,29.76,SSW,208,0.0,0.0,80,0.00,,,0.00,Wunderground v.1.15,2013-04-11 07:45:00,
2013-04-11 03:55:00,58.1,52.0,29.75,SSW,208,0.0,0.0,80,0.00,,,0.00,Wunderground v.1.15,2013-04-11 07:55:00,
2013-04-11 04:00:00,58.0,51.9,29.75,SSW,208,0.0,0.0,80,0.00,,,0.00,Wunderground v.1.15,2013-04-11 08:00:00,
2013-04-11 04:10:00,58.1,52.0,29.76,SSW,208,0.0,0.0,80,0.00,,,0.00,Wunderground v.1.15,2013-04-11 08:10:00,
2013-04-11 04:20:00,58.1,52.0,29.76,SSW,208,0.0,0.0,80,0.00,,,0.00,Wunderground v.1.15,2013-04-11 08:20:00,
2013-04-11 04:25:00,58.3,52.2,29.76,SSW,208,0.0,0.0,80,0.00,,,0.00,Wunderground v.1.15,2013-04-11 08:25:00,
2013-04-11 04:35:00,58.9,52.7,29.76,SSW,208,0.0,0.0,80,0.00,,,0.00,Wunderground v.1.15,2013-04-11 08:35:00,
2013-04-11 04:40:00,59.0,52.8,29.76,SSW,208,0.0,0.0,80,0.00,,,0.00,Wunderground v.1.15,2013-04-11 08:40:00,
2013-04-11 04:50:00,58.9,52.7,29.76,SSW,208,0.0,0.0,80,0.00,,,0.00,Wunderground v.1.15,2013-04-11 08:50:00,
2013-04-11 05:00:00,58.6,52.4,29.76,SSW,208,0.0,0.0,80,0.00,,,0.00,Wunderground v.1.15,2013-04-11 09:00:00,
2013-04-11 05:05:00,58.6,52.8,29.76,SSW,208,0.0,0.0,81,0.00,,,0.00,Wunderground v.1.15,2013-04-11 09:05:00,
2013-04-11 05:10:00,58.4,52.6,29.76,SSW,208,0.0,0.0,81,0.00,,,0.00,Wunderground v.1.15,2013-04-11 09:10:00,
2013-04-11 05:20:00,58.4,52.6,29.76,SSW,208,0.0,0.0,81,0.00,,,0.00,Wunderground v.1.15,2013-04-11 09:20:00,
2013-04-11 05:30:00,58.1,52.6,29.76,SSW,208,0.0,0.0,82,0.00,,,0.00,Wunderground v.1.15,2013-04-11 09:30:00,
2013-04-11 05:40:00,57.8,52.3,29.76,SSW,208,0.0,0.0,82,0.00,,,0.00,Wunderground v.1.15,2013-04-11 09:40:00,
2013-04-11 05:45:00,57.8,52.7,29.76,SSW,208,0.0,0.0,83,0.00,,,0.00,Wunderground v.1.15,2013-04-11 09:45:00,
2013-04-11 05:55:00,57.6,52.5,29.76,SSW,208,0.0,0.0,83,0.00,,,0.00,Wunderground v.1.15,2013-04-11 09:55:00,
2013-04-11 06:00:00,57.6,52.5,29.76,SSW,208,0.0,0.0,83,0.00,,,0.00,Wunderground v.1.15,2013-04-11 10:00:00,
2013-04-11 06:10:00,58.6,52.8,29.76,SSW,208,0.0,0.0,81,0.00,,,0.00,Wunderground v.1.15,2013-04-11 10:10:00,
2013-04-11 06:20:00,59.9,52.3,29.75,SSW,208,0.0,0.0,76,0.00,,,0.00,Wunderground v.1.15,2013-04-11 10:20:00,
2013-04-11 06:25:00,60.2,52.6,29.75,SSW,208,0.0,0.0,76,0.00,,,0.00,Wunderground v.1.15,2013-04-11 10:25:00,
2013-04-11 06:35:00,61.6,52.9,29.75,SSW,208,0.0,0.0,73,0.00,,,0.00,Wunderground v.1.15,2013-04-11 10:35:00,
2013-04-11 06:45:00,62.9,53.0,29.75,SSW,208,0.0,1.0,70,0.00,,,0.00,Wunderground v.1.15,2013-04-11 10:45:00,
2013-04-11 06:50:00,63.7,52.9,29.75,SSW,208,0.0,1.0,68,0.00,,,0.00,Wunderground v.1.15,2013-04-11 10:50:00,
2013-04-11 07:00:00,65.2,53.1,29.75,SSW,208,0.0,0.0,65,0.00,,,0.00,Wunderground v.1.15,2013-04-11 11:00:00,
2013-04-11 07:10:00,65.5,53.0,29.75,SSW,208,0.0,0.0,64,0.00,,,0.00,Wunderground v.1.15,2013-04-11 11:10:00,
2013-04-11 07:20:00,64.7,53.1,29.76,SSW,208,0.0,0.0,66,0.00,,,0.00,Wunderground v.1.15,2013-04-11 11:20:00,
2013-04-11 07:25:00,64.3,53.1,29.76,SSW,208,0.0,0.0,67,0.00,,,0.00,Wunderground v.1.15,2013-04-11 11:25:00,
2013-04-11 07:35:00,63.9,53.1,29.76,SSW,208,0.0,0.0,68,0.00,,,0.00,Wunderground v.1.15,2013-04-11 11:35:00,
2013-04-11 07:45:00,64.0,53.6,29.76,SSW,208,0.0,0.0,69,0.00,,,0.00,Wunderground v.1.15,2013-04-11 11:45:00,
2013-04-11 07:50:00,63.4,54.2,29.77,SSW,208,0.0,0.0,72,0.00,,,0.00,Wunderground v.1.15,2013-04-11 11:50:00,
2013-04-11 08:00:00,62.4,54.4,29.77,SSW,208,0.0,0.0,75,0.00,,,0.00,Wunderground v.1.15,2013-04-11 12:00:00,
2013-04-11 08:10:00,62.6,54.6,29.77,SSW,208,0.0,0.0,75,0.00,,,0.00,Wunderground v.1.15,2013-04-11 12:10:00,
2013-04-11 08:15:00,63.1,54.7,29.77,SSW,208,0.0,0.0,74,0.00,,,0.00,Wunderground v.1.15,2013-04-11 12:15:00,
2013-04-11 08:25:00,64.8,55.2,29.78,South,175,0.0,0.0,71,0.00,,,0.00,Wunderground v.1.15,2013-04-11 12:25:00,
2013-04-11 08:30:00,65.5,54.7,29.78,SSE,150,0.0,1.0,68,0.00,,,0.00,Wunderground v.1.15,2013-04-11 12:30:00,
2013-04-11 08:40:00,66.8,55.1,29.77,SSE,150,1.0,1.0,66,0.00,,,0.00,Wunderground v.1.15,2013-04-11 12:40:00,
2013-04-11 08:50:00,69.4,54.9,29.77,SSE,147,2.0,2.0,60,0.00,,,0.00,Wunderground v.1.15,2013-04-11 12:50:00,
2013-04-11 09:00:00,72.1,56.0,29.77,South,171,3.0,3.0,57,0.00,,,0.00,Wunderground v.1.15,2013-04-11 13:00:00,
2013-04-11 09:10:00,74.0,55.8,29.77,SW,215,4.0,6.0,53,0.00,,,0.00,Wunderground v.1.15,2013-04-11 13:10:00,
2013-04-11 09:15:00,74.2,55.4,29.77,South,179,4.0,6.0,52,0.00,,,0.00,Wunderground v.1.15,2013-04-11 13:15:00,
2013-04-11 09:25:00,74.4,55.1,29.77,SE,130,4.0,5.0,51,0.00,,,0.00,Wunderground v.1.15,2013-04-11 13:25:00,
2013-04-11 09:35:00,74.9,55.6,29.76,SSE,168,3.0,6.0,51,0.00,,,0.00,Wunderground v.1.15,2013-04-11 13:35:00,
2013-04-11 09:40:00,75.3,55.9,29.76,SSE,155,4.0,8.0,51,0.00,,,0.00,Wunderground v.1.15,2013-04-11 13:40:00,
2013-04-11 09:50:00,76.3,55.7,29.77,SE,136,4.0,4.0,49,0.00,,,0.00,Wunderground v.1.15,2013-04-11 13:50:00,
2013-04-11 10:00:00,76.5,55.9,29.77,South,185,6.0,6.0,49,0.00,,,0.00,Wunderground v.1.15,2013-04-11 14:00:00,
2013-04-11 10:10:00,76.3,55.2,29.76,South,175,5.0,6.0,48,0.00,,,0.00,Wunderground v.1.15,2013-04-11 14:10:00,
2013-04-11 10:15:00,76.1,55.5,29.76,South,184,5.0,6.0,49,0.00,,,0.00,Wunderground v.1.15,2013-04-11 14:15:00,
2013-04-11 10:20:00,76.3,55.7,29.77,SW,227,5.0,5.0,49,0.00,,,0.00,Wunderground v.1.15,2013-04-11 14:20:00,
2013-04-11 10:30:00,76.5,55.9,29.77,South,179,6.0,7.0,49,0.00,,,0.00,Wunderground v.1.15,2013-04-11 14:30:00,
2013-04-11 10:40:00,77.2,56.6,29.77,SSE,155,4.0,5.0,49,0.00,,,0.00,Wunderground v.1.15,2013-04-11 14:40:00,
2013-04-11 10:50:00,77.0,56.4,29.77,SW,233,6.0,8.0,49,0.00,,,0.00,Wunderground v.1.15,2013-04-11 14:50:00,
2013-04-11 11:00:00,77.2,56.6,29.77,SW,227,4.0,4.0,49,0.00,,,0.00,Wunderground v.1.15,2013-04-11 15:00:00,
2013-04-11 11:10:00,77.2,56.6,29.77,West,261,2.0,2.0,49,0.00,,,0.00,Wunderground v.1.15,2013-04-11 15:10:00,
2013-04-11 11:15:00,76.8,56.2,29.77,SW,219,3.0,5.0,49,0.00,,,0.00,Wunderground v.1.15,2013-04-11 15:15:00,
2013-04-11 11:25:00,76.7,56.1,29.77,SW,224,4.0,10.0,49,0.00,,,0.00,Wunderground v.1.15,2013-04-11 15:25:00,
2013-04-11 11:30:00,76.5,55.9,29.77,SSW,199,4.0,5.0,49,0.00,,,0.00,Wunderground v.1.15,2013-04-11 15:30:00,
2013-04-11 11:40:00,76.5,55.3,29.76,SSW,202,6.0,12.0,48,0.00,,,0.00,Wunderground v.1.15,2013-04-11 15:40:00,
2013-04-11 11:50:00,76.7,56.1,29.77,SSW,195,6.0,6.0,49,0.00,,,0.00,Wunderground v.1.15,2013-04-11 15:50:00,
2013-04-11 11:55:00,76.8,56.2,29.77,South,181,4.0,6.0,49,0.00,,,0.00,Wunderground v.1.15,2013-04-11 15:55:00,
2013-04-11 12:05:00,77.2,56.0,29.76,SSW,206,6.0,12.0,48,0.00,,,0.00,Wunderground v.1.15,2013-04-11 16:05:00,
2013-04-11 12:10:00,77.4,55.0,29.76,SW,215,7.0,7.0,46,0.00,,,0.00,Wunderground v.1.15,2013-04-11 16:10:00,
2013-04-11 12:20:00,78.1,55.6,29.76,SW,227,6.0,6.0,46,0.00,,,0.00,Wunderground v.1.15,2013-04-11 16:20:00,
2013-04-11 12:30:00,78.3,55.8,29.76,WSW,239,5.0,5.0,46,0.00,,,0.00,Wunderground v.1.15,2013-04-11 16:30:00,
2013-04-11 12:35:00,78.6,56.1,29.75,South,175,3.0,5.0,46,0.00,,,0.00,Wunderground v.1.15,2013-04-11 16:35:00,
2013-04-11 12:40:00,79.2,56.0,29.75,SSW,212,1.0,1.0,45,0.00,,,0.00,Wunderground v.1.15,2013-04-11 16:40:00,
2013-04-11 12:50:00,79.0,55.2,29.74,SSW,196,4.0,4.0,44,0.00,,,0.00,Wunderground v.1.15,2013-04-11 16:50:00,
2013-04-11 13:00:00,79.0,55.8,29.74,South,182,4.0,4.0,45,0.00,,,0.00,Wunderground v.1.15,2013-04-11 17:00:00,
2013-04-11 13:05:00,78.8,56.3,29.73,SSW,196,5.0,5.0,46,0.00,,,0.00,Wunderground v.1.15,2013-04-11 17:05:00,
2013-04-11 13:15:00,79.2,55.4,29.73,SSE,168,5.0,5.0,44,0.00,,,0.00,Wunderground v.1.15,2013-04-11 17:15:00,
2013-04-11 13:20:00,79.4,56.8,29.72,South,185,5.0,6.0,46,0.00,,,0.00,Wunderground v.1.15,2013-04-11 17:20:00,
2013-04-11 13:30:00,79.0,55.2,29.72,SE,145,7.0,7.0,44,0.00,,,0.00,Wunderground v.1.15,2013-04-11 17:30:00,
2013-04-11 13:40:00,79.0,54.6,29.72,SW,227,3.0,3.0,43,0.00,,,0.00,Wunderground v.1.15,2013-04-11 17:40:00,
2013-04-11 13:50:00,78.8,55.0,29.71,South,185,4.0,4.0,44,0.00,,,0.00,Wunderground v.1.15,2013-04-11 17:50:00,
2013-04-11 14:00:00,79.6,57.0,29.71,SE,131,3.0,5.0,46,0.00,,,0.00,Wunderground v.1.15,2013-04-11 18:00:00,
2013-04-11 14:10:00,79.2,54.1,29.69,SSE,167,5.0,5.0,42,0.00,,,0.00,Wunderground v.1.15,2013-04-11 18:10:00,
2013-04-11 14:15:00,79.0,54.6,29.69,SSW,192,5.0,5.0,43,0.00,,,0.00,Wunderground v.1.15,2013-04-11 18:15:00,
2013-04-11 14:25:00,79.2,55.4,29.69,SSW,199,4.0,5.0,44,0.00,,,0.00,Wunderground v.1.15,2013-04-11 18:25:00,
2013-04-11 14:30:00,79.2,54.1,29.69,South,176,4.0,4.0,42,0.00,,,0.00,Wunderground v.1.15,2013-04-11 18:30:00,
2013-04-11 14:40:00,79.9,55.4,29.68,WSW,256,2.0,5.0,43,0.00,,,0.00,Wunderground v.1.15,2013-04-11 18:40:00,
2013-04-11 14:50:00,80.7,55.5,29.67,SE,134,3.0,3.0,42,0.00,,,0.00,Wunderground v.1.15,2013-04-11 18:50:00,
2013-04-11 15:00:00,80.9,55.0,29.67,SE,144,3.0,8.0,41,0.00,,,0.00,Wunderground v.1.15,2013-04-11 19:00:00,
2013-04-11 15:10:00,81.1,55.8,29.66,SE,138,4.0,4.0,42,0.00,,,0.00,Wunderground v.1.15,2013-04-11 19:10:00,
2013-04-11 15:15:00,81.4,54.8,29.66,SSW,200,3.0,7.0,40,0.00,,,0.00,Wunderground v.1.15,2013-04-11 19:15:00,
2013-04-11 15:25:00,82.0,54.6,29.65,ESE,120,3.0,5.0,39,0.00,,,0.00,Wunderground v.1.15,2013-04-11 19:25:00,
2013-04-11 15:30:00,81.4,54.8,29.65,ESE,117,3.0,3.0,40,0.00,,,0.00,Wunderground v.1.15,2013-04-11 19:30:00,
2013-04-11 15:40:00,80.7,54.1,29.63,SSE,160,3.0,3.0,40,0.00,,,0.00,Wunderground v.1.15,2013-04-11 19:40:00,
2013-04-11 15:50:00,81.1,54.5,29.63,SSE,152,3.0,3.0,40,0.00,,,0.00,Wunderground v.1.15,2013-04-11 19:50:00,
2013-04-11 16:00:00,81.2,53.9,29.63,SE,131,3.0,5.0,39,0.00,,,0.00,Wunderground v.1.15,2013-04-11 20:00:00,
2013-04-11 16:10:00,81.1,53.8,29.61,South,184,5.0,10.0,39,0.00,,,0.00,Wunderground v.1.15,2013-04-11 20:10:00,
2013-04-11 16:20:00,80.7,53.4,29.60,SSW,205,4.0,5.0,39,0.00,,,0.00,Wunderground v.1.15,2013-04-11 20:20:00,
2013-04-11 16:30:00,80.5,52.6,29.60,SE,141,5.0,7.0,38,0.00,,,0.00,Wunderground v.1.15,2013-04-11 20:30:00,
2013-04-11 16:35:00,80.7,53.4,29.59,SE,145,6.0,7.0,39,0.00,,,0.00,Wunderground v.1.15,2013-04-11 20:35:00,
2013-04-11 16:45:00,80.9,52.9,29.59,SSE,168,4.0,5.0,38,0.00,,,0.00,Wunderground v.1.15,2013-04-11 20:45:00,
2013-04-11 16:55:00,81.1,53.8,29.58,South,172,2.0,4.0,39,0.00,,,0.00,Wunderground v.1.15,2013-04-11 20:55:00,
2013-04-11 17:05:00,80.9,52.2,29.58,SE,127,3.0,6.0,37,0.00,,,0.00,Wunderground v.1.15,2013-04-11 21:05:00,
2013-04-11 17:10:00,80.9,52.2,29.58,SSE,148,4.0,4.0,37,0.00,,,0.00,Wunderground v.1.15,2013-04-11 21:10:00,
2013-04-11 17:20:00,81.1,52.4,29.57,SSE,165,3.0,5.0,37,0.00,,,0.00,Wunderground v.1.15,2013-04-11 21:20:00,
2013-04-11 17:30:00,81.4,53.4,29.57,ESE,116,4.0,5.0,38,0.00,,,0.00,Wunderground v.1.15,2013-04-11 21:30:00,
2013-04-11 17:40:00,81.4,53.4,29.56,ESE,116,4.0,4.0,38,0.00,,,0.00,Wunderground v.1.15,2013-04-11 21:40:00,
2013-04-11 17:50:00,81.4,53.4,29.55,ESE,110,4.0,5.0,38,0.00,,,0.00,Wunderground v.1.15,2013-04-11 21:50:00,
2013-04-11 18:00:00,81.4,51.1,29.55,SSE,152,3.0,7.0,35,0.00,,,0.00,Wunderground v.1.15,2013-04-11 22:00:00,
2013-04-11 18:05:00,81.6,50.5,29.55,South,185,4.0,7.0,34,0.00,,,0.00,Wunderground v.1.15,2013-04-11 22:05:00,
2013-04-11 18:10:00,81.6,51.3,29.55,SSE,158,4.0,4.0,35,0.00,,,0.00,Wunderground v.1.15,2013-04-11 22:10:00,
2013-04-11 18:20:00,81.8,49.1,29.54,SSE,151,4.0,4.0,32,0.00,,,0.00,Wunderground v.1.15,2013-04-11 22:20:00,
2013-04-11 18:30:00,82.0,47.5,29.54,SSE,152,5.0,5.0,30,0.00,,,0.00,Wunderground v.1.15,2013-04-11 22:30:00,
2013-04-11 18:40:00,82.4,47.8,29.54,South,182,5.0,8.0,30,0.00,,,0.00,Wunderground v.1.15,2013-04-11 22:40:00,
2013-04-11 18:50:00,82.0,47.5,29.52,South,172,5.0,7.0,30,0.00,,,0.00,Wunderground v.1.15,2013-04-11 22:50:00,
2013-04-11 19:00:00,81.8,48.2,29.52,SE,131,4.0,6.0,31,0.00,,,0.00,Wunderground v.1.15,2013-04-11 23:00:00,
2013-04-11 19:05:00,81.8,48.2,29.51,South,169,3.0,6.0,31,0.00,,,0.00,Wunderground v.1.15,2013-04-11 23:05:00,
2013-04-11 19:15:00,81.4,48.7,29.51,SE,131,2.0,2.0,32,0.00,,,0.00,Wunderground v.1.15,2013-04-11 23:15:00,
2013-04-11 19:20:00,81.2,49.4,29.51,SE,141,2.0,2.0,33,0.00,,,0.00,Wunderground v.1.15,2013-04-11 23:20:00,
2013-04-11 19:25:00,81.1,48.4,29.51,ESE,121,2.0,2.0,32,0.00,,,0.00,Wunderground v.1.15,2013-04-11 23:25:00,
2013-04-11 19:35:00,80.7,48.9,29.50,East,100,2.0,5.0,33,0.00,,,0.00,Wunderground v.1.15,2013-04-11 23:35:00,
2013-04-11 19:45:00,80.3,49.4,29.50,SE,145,3.0,3.0,34,0.00,,,0.00,Wunderground v.1.15,2013-04-11 23:45:00,
2013-04-11 19:50:00,80.1,49.2,29.48,SE,124,2.0,2.0,34,0.00,,,0.00,Wunderground v.1.15,2013-04-11 23:50:00,
2013-04-11 20:00:00,79.8,48.9,29.48,SE,126,3.0,3.0,34,0.00,,,0.00,Wunderground v.1.15,2013-04-12 00:00:00,
2013-04-11 20:05:00,79.6,48.8,29.48,SSE,168,3.0,5.0,34,0.00,,,0.00,Wunderground v.1.15,2013-04-12 00:05:00,
2013-04-11 20:10:00,80.1,47.6,29.48,SE,143,3.0,5.0,32,0.00,,,0.00,Wunderground v.1.15,2013-04-12 00:10:00,
2013-04-11 20:20:00,80.7,47.2,29.48,South,171,4.0,4.0,31,0.00,,,0.00,Wunderground v.1.15,2013-04-12 00:20:00,
2013-04-11 20:30:00,80.5,46.2,29.48,ESE,114,3.0,3.0,30,0.00,,,0.00,Wunderground v.1.15,2013-04-12 00:30:00,
2013-04-11 20:35:00,80.7,46.4,29.48,SSE,147,4.0,4.0,30,0.00,,,0.00,Wunderground v.1.15,2013-04-12 00:35:00,
2013-04-11 20:45:00,80.3,49.4,29.48,WSW,241,4.0,6.0,34,0.00,,,0.00,Wunderground v.1.15,2013-04-12 00:45:00,
2013-04-11 20:50:00,75.1,60.7,29.53,NW,323,7.0,7.0,61,0.00,,,0.00,Wunderground v.1.15,2013-04-12 00:50:00,
2013-04-11 20:55:00,70.1,61.0,29.53,WNW,294,8.0,8.0,73,0.00,,,0.01,Wunderground v.1.15,2013-04-12 00:55:00,
2013-04-11 21:05:00,67.8,61.0,29.55,West,263,6.0,8.0,79,0.00,,,0.01,Wunderground v.1.15,2013-04-12 01:05:00,
2013-04-11 21:15:00,66.6,59.9,29.55,SW,219,6.0,11.0,79,0.00,,,0.01,Wunderground v.1.15,2013-04-12 01:15:00,
2013-04-11 21:20:00,66.0,58.6,29.58,West,278,7.0,8.0,77,0.00,,,0.01,Wunderground v.1.15,2013-04-12 01:20:00,
2013-04-11 21:30:00,64.5,57.1,29.58,West,277,6.0,8.0,77,0.00,,,0.01,Wunderground v.1.15,2013-04-12 01:30:00,
2013-04-11 21:40:00,63.7,56.4,29.59,WNW,289,6.0,6.0,77,0.00,,,0.01,Wunderground v.1.15,2013-04-12 01:40:00,
2013-04-11 21:50:00,63.4,56.1,29.60,West,281,4.0,4.0,77,0.00,,,0.01,Wunderground v.1.15,2013-04-12 01:50:00,
2013-04-11 22:00:00,62.9,55.6,29.60,WNW,302,3.0,6.0,77,0.00,,,0.01,Wunderground v.1.15,2013-04-12 02:00:00,
2013-04-11 22:05:00,62.7,55.4,29.60,West,271,4.0,7.0,77,0.00,,,0.01,Wunderground v.1.15,2013-04-12 02:05:00,
2013-04-11 22:15:00,62.3,56.0,29.60,West,280,3.0,5.0,80,0.00,,,0.02,Wunderground v.1.15,2013-04-12 02:15:00,
2013-04-11 22:20:00,61.8,55.9,29.62,WNW,298,3.0,3.0,81,0.00,,,0.02,Wunderground v.1.15,2013-04-12 02:20:00,
2013-04-11 22:30:00,61.0,56.1,29.62,West,281,3.0,6.0,84,0.00,,,0.02,Wunderground v.1.15,2013-04-12 02:30:00,
2013-04-11 22:40:00,60.7,56.2,29.61,WNW,288,2.0,2.0,85,0.00,,,0.02,Wunderground v.1.15,2013-04-12 02:40:00,
2013-04-11 22:45:00,60.5,56.3,29.61,WNW,288,1.0,2.0,86,0.00,,,0.02,Wunderground v.1.15,2013-04-12 02:45:00,
2013-04-11 22:55:00,60.2,56.3,29.61,West,268,1.0,1.0,87,0.00,,,0.03,Wunderground v.1.15,2013-04-12 02:55:00,
2013-04-11 23:00:00,60.1,56.5,29.61,West,267,1.0,3.0,88,0.05,,,0.04,Wunderground v.1.15,2013-04-12 03:00:00,
2013-04-11 23:10:00,59.8,56.9,29.63,West,272,1.0,2.0,90,0.42,,,0.01,Wunderground v.1.15,2013-04-12 03:10:00,
2013-04-11 23:20:00,59.5,56.9,29.62,West,263,1.0,1.0,91,0.20,,,0.06,Wunderground v.1.15,2013-04-12 03:20:00,
2013-04-11 23:25:00,59.3,56.7,29.62,West,263,0.0,1.0,91,0.19,,,0.06,Wunderground v.1.15,2013-04-12 03:25:00,
2013-04-11 23:35:00,59.2,56.9,29.60,West,263,0.0,0.0,92,0.12,,,0.09,Wunderground v.1.15,2013-04-12 03:35:00,
2013-04-11 23:40:00,59.2,56.9,29.60,West,263,0.0,0.0,92,0.11,,,0.09,Wunderground v.1.15,2013-04-12 03:40:00,
2013-04-11 23:50:00,59.2,56.9,29.60,South,182,3.0,3.0,92,0.07,,,0.11,Wunderground v.1.15,2013-04-12 03:50:00,